sensor_id;sensor_type;location;lat;lon;timestamp;P1;durP1;ratioP1;P2;durP2;ratioP2
40609;SDS011;26316;55.976;37.140;2023-04-05T00:01:22;7.93;;;6.13;;
40609;SDS011;26316;55.976;37.140;2023-04-05T00:03:52;7.40;;;5.97;;
40609;SDS011;26316;55.976;37.140;2023-04-05T00:06:19;7.70;;;6.90;;
40609;SDS011;26316;55.976;37.140;2023-04-05T00:09:00;8.82;;;6.88;;
40609;SDS011;26316;55.976;37.140;2023-04-05T00:11:28;7.35;;;6.70;;
40609;SDS011;26316;55.976;37.140;2023-04-05T00:13:55;7.32;;;6.50;;
40609;SDS011;26316;55.976;37.140;2023-04-05T00:16:21;12.98;;;7.38;;
40609;SDS011;26316;55.976;37.140;2023-04-05T00:18:47;8.13;;;6.55;;
40609;SDS011;26316;55.976;37.140;2023-04-05T00:21:16;7.50;;;6.70;;
40609;SDS011;26316;55.976;37.140;2023-04-05T00:26:15;8.35;;;7.10;;
40609;SDS011;26316;55.976;37.140;2023-04-05T00:28:46;8.95;;;6.60;;
40609;SDS011;26316;55.976;37.140;2023-04-05T00:31:12;8.25;;;7.45;;
40609;SDS011;26316;55.976;37.140;2023-04-05T00:33:38;9.75;;;6.65;;
40609;SDS011;26316;55.976;37.140;2023-04-05T00:36:13;9.55;;;7.10;;
40609;SDS011;26316;55.976;37.140;2023-04-05T00:38:41;9.30;;;8.38;;
40609;SDS011;26316;55.976;37.140;2023-04-05T00:41:08;8.48;;;7.55;;
40609;SDS011;26316;55.976;37.140;2023-04-05T00:43:34;10.52;;;7.32;;
40609;SDS011;26316;55.976;37.140;2023-04-05T00:46:01;8.35;;;7.25;;
40609;SDS011;26316;55.976;37.140;2023-04-05T00:48:27;8.35;;;7.55;;
40609;SDS011;26316;55.976;37.140;2023-04-05T00:50:53;7.65;;;6.82;;
40609;SDS011;26316;55.976;37.140;2023-04-05T00:53:19;8.20;;;7.22;;
40609;SDS011;26316;55.976;37.140;2023-04-05T00:55:46;11.63;;;7.10;;
40609;SDS011;26316;55.976;37.140;2023-04-05T00:58:13;9.05;;;7.10;;
40609;SDS011;26316;55.976;37.140;2023-04-05T01:01:06;9.65;;;7.65;;
40609;SDS011;26316;55.976;37.140;2023-04-05T01:03:42;7.28;;;6.57;;
40609;SDS011;26316;55.976;37.140;2023-04-05T01:12:00;8.15;;;7.40;;
40609;SDS011;26316;55.976;37.140;2023-04-05T01:14:28;8.05;;;6.93;;
40609;SDS011;26316;55.976;37.140;2023-04-05T01:16:54;10.35;;;7.40;;
40609;SDS011;26316;55.976;37.140;2023-04-05T01:19:26;7.68;;;6.93;;
40609;SDS011;26316;55.976;37.140;2023-04-05T01:22:06;7.00;;;6.30;;
40609;SDS011;26316;55.976;37.140;2023-04-05T01:28:02;7.90;;;7.10;;
40609;SDS011;26316;55.976;37.140;2023-04-05T01:31:31;7.72;;;7.00;;
40609;SDS011;26316;55.976;37.140;2023-04-05T01:36:29;8.77;;;7.10;;
40609;SDS011;26316;55.976;37.140;2023-04-05T01:39:02;7.07;;;6.32;;
40609;SDS011;26316;55.976;37.140;2023-04-05T01:41:29;6.68;;;6.18;;
40609;SDS011;26316;55.976;37.140;2023-04-05T01:43:55;6.70;;;6.10;;
40609;SDS011;26316;55.976;37.140;2023-04-05T01:46:20;6.22;;;5.63;;
40609;SDS011;26316;55.976;37.140;2023-04-05T01:48:46;8.77;;;6.47;;
40609;SDS011;26316;55.976;37.140;2023-04-05T01:51:12;6.95;;;6.10;;
40609;SDS011;26316;55.976;37.140;2023-04-05T01:53:39;7.75;;;7.00;;
40609;SDS011;26316;55.976;37.140;2023-04-05T01:56:05;9.55;;;7.13;;
40609;SDS011;26316;55.976;37.140;2023-04-05T01:58:31;8.10;;;7.30;;
40609;SDS011;26316;55.976;37.140;2023-04-05T02:00:57;7.88;;;6.43;;
40609;SDS011;26316;55.976;37.140;2023-04-05T02:03:23;9.68;;;5.72;;
40609;SDS011;26316;55.976;37.140;2023-04-05T02:05:49;9.02;;;6.03;;
40609;SDS011;26316;55.976;37.140;2023-04-05T02:08:16;9.35;;;6.13;;
40609;SDS011;26316;55.976;37.140;2023-04-05T02:10:41;9.85;;;6.53;;
40609;SDS011;26316;55.976;37.140;2023-04-05T02:13:07;9.23;;;6.40;;
40609;SDS011;26316;55.976;37.140;2023-04-05T02:15:33;7.20;;;6.32;;
40609;SDS011;26316;55.976;37.140;2023-04-05T02:17:59;11.15;;;6.28;;
40609;SDS011;26316;55.976;37.140;2023-04-05T02:20:28;13.60;;;7.78;;
40609;SDS011;26316;55.976;37.140;2023-04-05T02:22:54;12.55;;;6.38;;
40609;SDS011;26316;55.976;37.140;2023-04-05T02:25:20;9.35;;;6.25;;
40609;SDS011;26316;55.976;37.140;2023-04-05T02:27:46;9.57;;;6.10;;
40609;SDS011;26316;55.976;37.140;2023-04-05T02:30:12;8.45;;;6.32;;
40609;SDS011;26316;55.976;37.140;2023-04-05T02:32:40;8.90;;;5.47;;
40609;SDS011;26316;55.976;37.140;2023-04-05T02:35:10;10.55;;;6.07;;
40609;SDS011;26316;55.976;37.140;2023-04-05T02:37:36;9.43;;;5.88;;
40609;SDS011;26316;55.976;37.140;2023-04-05T02:40:06;8.95;;;5.85;;
40609;SDS011;26316;55.976;37.140;2023-04-05T02:42:37;8.32;;;5.60;;
40609;SDS011;26316;55.976;37.140;2023-04-05T02:45:03;8.65;;;5.57;;
40609;SDS011;26316;55.976;37.140;2023-04-05T02:47:30;8.68;;;5.32;;
40609;SDS011;26316;55.976;37.140;2023-04-05T02:49:57;6.72;;;5.05;;
40609;SDS011;26316;55.976;37.140;2023-04-05T02:52:28;9.10;;;5.82;;
40609;SDS011;26316;55.976;37.140;2023-04-05T02:54:54;5.25;;;4.70;;
40609;SDS011;26316;55.976;37.140;2023-04-05T02:57:24;7.10;;;5.13;;
40609;SDS011;26316;55.976;37.140;2023-04-05T02:59:58;5.95;;;4.88;;
40609;SDS011;26316;55.976;37.140;2023-04-05T03:02:26;7.45;;;5.07;;
40609;SDS011;26316;55.976;37.140;2023-04-05T03:04:52;7.93;;;5.03;;
40609;SDS011;26316;55.976;37.140;2023-04-05T03:07:19;6.13;;;4.72;;
40609;SDS011;26316;55.976;37.140;2023-04-05T03:09:46;6.22;;;4.55;;
40609;SDS011;26316;55.976;37.140;2023-04-05T03:12:13;6.10;;;5.30;;
40609;SDS011;26316;55.976;37.140;2023-04-05T03:14:41;5.70;;;4.57;;
40609;SDS011;26316;55.976;37.140;2023-04-05T03:17:09;6.15;;;4.97;;
40609;SDS011;26316;55.976;37.140;2023-04-05T03:19:39;5.22;;;4.40;;
40609;SDS011;26316;55.976;37.140;2023-04-05T03:22:13;5.10;;;4.60;;
40609;SDS011;26316;55.976;37.140;2023-04-05T03:24:39;9.38;;;4.80;;
40609;SDS011;26316;55.976;37.140;2023-04-05T03:27:08;5.80;;;5.20;;
40609;SDS011;26316;55.976;37.140;2023-04-05T03:29:42;7.25;;;5.10;;
40609;SDS011;26316;55.976;37.140;2023-04-05T03:32:13;8.60;;;6.13;;
40609;SDS011;26316;55.976;37.140;2023-04-05T03:34:46;5.95;;;5.10;;
40609;SDS011;26316;55.976;37.140;2023-04-05T03:37:13;5.88;;;5.13;;
40609;SDS011;26316;55.976;37.140;2023-04-05T03:39:45;5.70;;;5.20;;
40609;SDS011;26316;55.976;37.140;2023-04-05T03:42:10;7.97;;;5.93;;
40609;SDS011;26316;55.976;37.140;2023-04-05T03:44:36;5.38;;;4.50;;
40609;SDS011;26316;55.976;37.140;2023-04-05T03:47:02;4.88;;;4.43;;
40609;SDS011;26316;55.976;37.140;2023-04-05T03:49:29;4.30;;;3.90;;
40609;SDS011;26316;55.976;37.140;2023-04-05T03:51:55;4.50;;;3.80;;
40609;SDS011;26316;55.976;37.140;2023-04-05T03:54:21;5.05;;;4.53;;
40609;SDS011;26316;55.976;37.140;2023-04-05T03:56:51;6.10;;;5.25;;
40609;SDS011;26316;55.976;37.140;2023-04-05T03:59:17;5.05;;;4.03;;
40609;SDS011;26316;55.976;37.140;2023-04-05T04:01:43;6.80;;;4.95;;
40609;SDS011;26316;55.976;37.140;2023-04-05T04:04:09;5.30;;;4.32;;
40609;SDS011;26316;55.976;37.140;2023-04-05T04:06:36;4.18;;;3.75;;
40609;SDS011;26316;55.976;37.140;2023-04-05T04:09:02;4.72;;;3.70;;
40609;SDS011;26316;55.976;37.140;2023-04-05T04:11:30;3.92;;;3.63;;
40609;SDS011;26316;55.976;37.140;2023-04-05T04:13:58;6.30;;;4.43;;
40609;SDS011;26316;55.976;37.140;2023-04-05T04:16:33;4.90;;;4.50;;
40609;SDS011;26316;55.976;37.140;2023-04-05T04:19:07;5.82;;;5.32;;
40609;SDS011;26316;55.976;37.140;2023-04-05T04:21:58;4.82;;;4.28;;
40609;SDS011;26316;55.976;37.140;2023-04-05T04:24:42;5.10;;;3.78;;
40609;SDS011;26316;55.976;37.140;2023-04-05T04:27:32;3.95;;;3.65;;
40609;SDS011;26316;55.976;37.140;2023-04-05T04:30:13;3.47;;;3.13;;
40609;SDS011;26316;55.976;37.140;2023-04-05T04:32:57;3.60;;;3.30;;
40609;SDS011;26316;55.976;37.140;2023-04-05T04:35:24;3.63;;;3.33;;
40609;SDS011;26316;55.976;37.140;2023-04-05T04:38:00;3.22;;;2.90;;
40609;SDS011;26316;55.976;37.140;2023-04-05T04:40:40;4.40;;;3.72;;
40609;SDS011;26316;55.976;37.140;2023-04-05T04:43:46;5.85;;;4.18;;
40609;SDS011;26316;55.976;37.140;2023-04-05T04:46:16;3.00;;;2.80;;
40609;SDS011;26316;55.976;37.140;2023-04-05T04:48:59;4.13;;;3.28;;
40609;SDS011;26316;55.976;37.140;2023-04-05T04:51:31;3.60;;;3.30;;
40609;SDS011;26316;55.976;37.140;2023-04-05T04:53:57;2.83;;;2.47;;
40609;SDS011;26316;55.976;37.140;2023-04-05T04:56:23;4.88;;;2.78;;
40609;SDS011;26316;55.976;37.140;2023-04-05T04:58:51;3.90;;;3.60;;
40609;SDS011;26316;55.976;37.140;2023-04-05T05:01:18;2.67;;;2.47;;
40609;SDS011;26316;55.976;37.140;2023-04-05T05:03:46;3.92;;;2.72;;
40609;SDS011;26316;55.976;37.140;2023-04-05T05:06:17;3.05;;;2.45;;
40609;SDS011;26316;55.976;37.140;2023-04-05T05:08:46;5.03;;;2.80;;
40609;SDS011;26316;55.976;37.140;2023-04-05T05:11:13;2.85;;;2.65;;
40609;SDS011;26316;55.976;37.140;2023-04-05T05:13:38;4.97;;;2.70;;
40609;SDS011;26316;55.976;37.140;2023-04-05T05:16:04;4.13;;;2.30;;
40609;SDS011;26316;55.976;37.140;2023-04-05T05:18:31;2.47;;;2.28;;
40609;SDS011;26316;55.976;37.140;2023-04-05T05:20:56;2.72;;;2.47;;
40609;SDS011;26316;55.976;37.140;2023-04-05T05:23:22;5.10;;;2.72;;
40609;SDS011;26316;55.976;37.140;2023-04-05T05:25:48;3.15;;;2.50;;
40609;SDS011;26316;55.976;37.140;2023-04-05T05:28:14;2.30;;;2.10;;
40609;SDS011;26316;55.976;37.140;2023-04-05T05:30:40;3.08;;;2.33;;
40609;SDS011;26316;55.976;37.140;2023-04-05T05:33:06;3.08;;;2.00;;
40609;SDS011;26316;55.976;37.140;2023-04-05T05:35:32;3.50;;;2.20;;
40609;SDS011;26316;55.976;37.140;2023-04-05T05:37:57;4.15;;;2.55;;
40609;SDS011;26316;55.976;37.140;2023-04-05T05:40:23;2.88;;;2.28;;
40609;SDS011;26316;55.976;37.140;2023-04-05T05:42:51;3.00;;;2.50;;
40609;SDS011;26316;55.976;37.140;2023-04-05T05:45:16;4.65;;;2.50;;
40609;SDS011;26316;55.976;37.140;2023-04-05T05:47:42;3.95;;;2.50;;
40609;SDS011;26316;55.976;37.140;2023-04-05T05:50:08;3.13;;;2.55;;
40609;SDS011;26316;55.976;37.140;2023-04-05T05:52:34;2.55;;;2.25;;
40609;SDS011;26316;55.976;37.140;2023-04-05T05:55:00;2.80;;;2.60;;
40609;SDS011;26316;55.976;37.140;2023-04-05T05:57:25;3.65;;;2.60;;
40609;SDS011;26316;55.976;37.140;2023-04-05T05:59:51;4.43;;;2.60;;
40609;SDS011;26316;55.976;37.140;2023-04-05T06:02:17;3.65;;;3.33;;
40609;SDS011;26316;55.976;37.140;2023-04-05T06:04:43;4.18;;;2.85;;
40609;SDS011;26316;55.976;37.140;2023-04-05T06:07:09;5.40;;;2.60;;
40609;SDS011;26316;55.976;37.140;2023-04-05T06:09:35;4.35;;;2.70;;
40609;SDS011;26316;55.976;37.140;2023-04-05T06:12:00;5.43;;;2.67;;
40609;SDS011;26316;55.976;37.140;2023-04-05T06:14:27;2.75;;;2.30;;
40609;SDS011;26316;55.976;37.140;2023-04-05T06:16:54;3.72;;;3.15;;
40609;SDS011;26316;55.976;37.140;2023-04-05T06:19:20;4.53;;;2.83;;
40609;SDS011;26316;55.976;37.140;2023-04-05T06:21:45;4.05;;;3.72;;
40609;SDS011;26316;55.976;37.140;2023-04-05T06:24:12;3.92;;;3.00;;
40609;SDS011;26316;55.976;37.140;2023-04-05T06:26:38;3.90;;;3.45;;
40609;SDS011;26316;55.976;37.140;2023-04-05T06:29:04;7.25;;;4.40;;
40609;SDS011;26316;55.976;37.140;2023-04-05T06:31:31;4.60;;;4.05;;
40609;SDS011;26316;55.976;37.140;2023-04-05T06:33:58;4.30;;;3.90;;
40609;SDS011;26316;55.976;37.140;2023-04-05T06:36:24;3.30;;;3.10;;
40609;SDS011;26316;55.976;37.140;2023-04-05T06:38:50;4.38;;;3.97;;
40609;SDS011;26316;55.976;37.140;2023-04-05T06:41:16;5.00;;;4.10;;
40609;SDS011;26316;55.976;37.140;2023-04-05T06:43:42;7.05;;;4.07;;
40609;SDS011;26316;55.976;37.140;2023-04-05T06:46:08;7.82;;;3.30;;
40609;SDS011;26316;55.976;37.140;2023-04-05T06:48:35;4.97;;;4.10;;
40609;SDS011;26316;55.976;37.140;2023-04-05T06:51:02;4.95;;;3.80;;
40609;SDS011;26316;55.976;37.140;2023-04-05T06:53:28;6.43;;;3.88;;
40609;SDS011;26316;55.976;37.140;2023-04-05T06:55:55;4.47;;;3.80;;
40609;SDS011;26316;55.976;37.140;2023-04-05T06:58:24;6.07;;;4.80;;
40609;SDS011;26316;55.976;37.140;2023-04-05T07:00:50;6.78;;;4.22;;
40609;SDS011;26316;55.976;37.140;2023-04-05T07:03:16;5.38;;;3.42;;
40609;SDS011;26316;55.976;37.140;2023-04-05T07:05:52;3.97;;;3.67;;
40609;SDS011;26316;55.976;37.140;2023-04-05T07:08:23;5.13;;;4.20;;
40609;SDS011;26316;55.976;37.140;2023-04-05T07:10:50;5.65;;;3.53;;
40609;SDS011;26316;55.976;37.140;2023-04-05T07:13:16;4.28;;;3.85;;
40609;SDS011;26316;55.976;37.140;2023-04-05T07:15:43;5.15;;;3.65;;
40609;SDS011;26316;55.976;37.140;2023-04-05T07:18:10;4.35;;;3.97;;
40609;SDS011;26316;55.976;37.140;2023-04-05T07:20:36;9.27;;;4.38;;
40609;SDS011;26316;55.976;37.140;2023-04-05T07:23:02;12.73;;;4.30;;
40609;SDS011;26316;55.976;37.140;2023-04-05T07:25:29;4.55;;;4.13;;
40609;SDS011;26316;55.976;37.140;2023-04-05T07:27:55;4.40;;;3.80;;
40609;SDS011;26316;55.976;37.140;2023-04-05T07:30:21;4.75;;;4.20;;
40609;SDS011;26316;55.976;37.140;2023-04-05T07:32:48;6.55;;;4.03;;
40609;SDS011;26316;55.976;37.140;2023-04-05T07:35:14;4.28;;;3.95;;
40609;SDS011;26316;55.976;37.140;2023-04-05T07:37:39;5.72;;;4.95;;
40609;SDS011;26316;55.976;37.140;2023-04-05T07:40:05;5.07;;;4.20;;
40609;SDS011;26316;55.976;37.140;2023-04-05T07:42:32;5.00;;;4.22;;
40609;SDS011;26316;55.976;37.140;2023-04-05T07:44:58;4.15;;;3.80;;
40609;SDS011;26316;55.976;37.140;2023-04-05T07:47:23;5.80;;;4.15;;
40609;SDS011;26316;55.976;37.140;2023-04-05T07:49:49;5.68;;;4.50;;
40609;SDS011;26316;55.976;37.140;2023-04-05T07:52:14;5.82;;;4.95;;
40609;SDS011;26316;55.976;37.140;2023-04-05T07:54:40;6.07;;;3.92;;
40609;SDS011;26316;55.976;37.140;2023-04-05T07:57:17;4.10;;;3.63;;
40609;SDS011;26316;55.976;37.140;2023-04-05T07:59:43;6.15;;;4.03;;
40609;SDS011;26316;55.976;37.140;2023-04-05T08:02:09;5.20;;;3.78;;
40609;SDS011;26316;55.976;37.140;2023-04-05T08:04:34;5.93;;;4.10;;
40609;SDS011;26316;55.976;37.140;2023-04-05T08:07:00;3.80;;;3.50;;
40609;SDS011;26316;55.976;37.140;2023-04-05T08:09:26;5.45;;;3.70;;
40609;SDS011;26316;55.976;37.140;2023-04-05T08:11:51;4.07;;;3.78;;
40609;SDS011;26316;55.976;37.140;2023-04-05T08:14:17;6.75;;;3.40;;
40609;SDS011;26316;55.976;37.140;2023-04-05T08:16:43;6.10;;;3.67;;
40609;SDS011;26316;55.976;37.140;2023-04-05T08:19:08;5.75;;;3.38;;
40609;SDS011;26316;55.976;37.140;2023-04-05T08:21:34;5.60;;;3.50;;
40609;SDS011;26316;55.976;37.140;2023-04-05T08:24:00;5.68;;;3.65;;
40609;SDS011;26316;55.976;37.140;2023-04-05T08:26:26;4.10;;;3.20;;
40609;SDS011;26316;55.976;37.140;2023-04-05T08:28:51;3.42;;;3.17;;
40609;SDS011;26316;55.976;37.140;2023-04-05T08:31:17;6.22;;;3.53;;
40609;SDS011;26316;55.976;37.140;2023-04-05T08:33:43;2.97;;;2.75;;
40609;SDS011;26316;55.976;37.140;2023-04-05T08:36:09;3.50;;;3.13;;
40609;SDS011;26316;55.976;37.140;2023-04-05T08:38:35;3.60;;;3.28;;
40609;SDS011;26316;55.976;37.140;2023-04-05T08:41:12;4.45;;;3.08;;
40609;SDS011;26316;55.976;37.140;2023-04-05T08:43:43;13.45;;;6.07;;
40609;SDS011;26316;55.976;37.140;2023-04-05T08:46:17;7.05;;;3.75;;
40609;SDS011;26316;55.976;37.140;2023-04-05T08:48:43;4.80;;;3.13;;
40609;SDS011;26316;55.976;37.140;2023-04-05T08:51:08;3.97;;;2.95;;
40609;SDS011;26316;55.976;37.140;2023-04-05T08:53:34;8.55;;;3.65;;
40609;SDS011;26316;55.976;37.140;2023-04-05T08:56:01;3.05;;;2.75;;
40609;SDS011;26316;55.976;37.140;2023-04-05T08:58:28;5.13;;;3.22;;
40609;SDS011;26316;55.976;37.140;2023-04-05T09:00:55;4.70;;;2.92;;
40609;SDS011;26316;55.976;37.140;2023-04-05T09:03:22;7.25;;;3.42;;
40609;SDS011;26316;55.976;37.140;2023-04-05T09:05:50;6.43;;;3.10;;
40609;SDS011;26316;55.976;37.140;2023-04-05T09:08:16;3.47;;;2.75;;
40609;SDS011;26316;55.976;37.140;2023-04-05T09:10:43;6.45;;;3.63;;
40609;SDS011;26316;55.976;37.140;2023-04-05T09:13:09;3.65;;;2.92;;
40609;SDS011;26316;55.976;37.140;2023-04-05T09:15:37;4.32;;;2.97;;
40609;SDS011;26316;55.976;37.140;2023-04-05T09:18:04;4.00;;;2.80;;
40609;SDS011;26316;55.976;37.140;2023-04-05T09:20:29;3.13;;;2.83;;
40609;SDS011;26316;55.976;37.140;2023-04-05T09:22:56;9.02;;;3.17;;
40609;SDS011;26316;55.976;37.140;2023-04-05T09:27:57;5.05;;;2.70;;
40609;SDS011;26316;55.976;37.140;2023-04-05T09:30:24;6.32;;;2.78;;
40609;SDS011;26316;55.976;37.140;2023-04-05T09:32:50;8.25;;;2.67;;
40609;SDS011;26316;55.976;37.140;2023-04-05T09:35:26;2.77;;;2.50;;
40609;SDS011;26316;55.976;37.140;2023-04-05T09:37:54;3.38;;;3.00;;
40609;SDS011;26316;55.976;37.140;2023-04-05T09:40:22;9.80;;;2.85;;
40609;SDS011;26316;55.976;37.140;2023-04-05T09:42:49;7.70;;;3.08;;
40609;SDS011;26316;55.976;37.140;2023-04-05T09:45:16;4.15;;;3.10;;
40609;SDS011;26316;55.976;37.140;2023-04-05T09:47:55;9.05;;;4.15;;
40609;SDS011;26316;55.976;37.140;2023-04-05T09:50:22;6.68;;;4.22;;
40609;SDS011;26316;55.976;37.140;2023-04-05T09:52:48;4.45;;;4.00;;
40609;SDS011;26316;55.976;37.140;2023-04-05T09:55:17;5.90;;;3.47;;
40609;SDS011;26316;55.976;37.140;2023-04-05T09:57:51;3.50;;;3.13;;
40609;SDS011;26316;55.976;37.140;2023-04-05T10:00:17;8.43;;;4.15;;
40609;SDS011;26316;55.976;37.140;2023-04-05T10:02:44;7.65;;;4.07;;
40609;SDS011;26316;55.976;37.140;2023-04-05T10:05:13;5.65;;;3.70;;
40609;SDS011;26316;55.976;37.140;2023-04-05T10:07:40;9.57;;;4.35;;
40609;SDS011;26316;55.976;37.140;2023-04-05T10:10:07;6.47;;;4.40;;
40609;SDS011;26316;55.976;37.140;2023-04-05T10:12:36;3.75;;;3.45;;
40609;SDS011;26316;55.976;37.140;2023-04-05T10:15:03;6.82;;;4.00;;
40609;SDS011;26316;55.976;37.140;2023-04-05T10:17:45;5.53;;;3.75;;
40609;SDS011;26316;55.976;37.140;2023-04-05T10:20:20;5.85;;;4.32;;
40609;SDS011;26316;55.976;37.140;2023-04-05T10:33:54;8.00;;;3.60;;
40609;SDS011;26316;55.976;37.140;2023-04-05T10:36:34;6.03;;;4.60;;
40609;SDS011;26316;55.976;37.140;2023-04-05T10:41:52;5.38;;;3.72;;
40609;SDS011;26316;55.976;37.140;2023-04-05T10:44:22;8.40;;;4.18;;
40609;SDS011;26316;55.976;37.140;2023-04-05T10:46:47;8.02;;;4.15;;
40609;SDS011;26316;55.976;37.140;2023-04-05T10:52:03;5.95;;;3.70;;
40609;SDS011;26316;55.976;37.140;2023-04-05T10:54:31;3.97;;;3.65;;
40609;SDS011;26316;55.976;37.140;2023-04-05T10:56:58;4.20;;;3.50;;
40609;SDS011;26316;55.976;37.140;2023-04-05T10:59:25;7.90;;;3.85;;
40609;SDS011;26316;55.976;37.140;2023-04-05T11:01:52;9.32;;;3.83;;
40609;SDS011;26316;55.976;37.140;2023-04-05T11:04:18;8.05;;;3.88;;
40609;SDS011;26316;55.976;37.140;2023-04-05T11:06:45;3.22;;;3.00;;
40609;SDS011;26316;55.976;37.140;2023-04-05T11:09:18;3.90;;;3.60;;
40609;SDS011;26316;55.976;37.140;2023-04-05T11:11:45;4.03;;;3.63;;
40609;SDS011;26316;55.976;37.140;2023-04-05T11:14:16;5.22;;;4.13;;
40609;SDS011;26316;55.976;37.140;2023-04-05T11:16:47;7.18;;;3.83;;
40609;SDS011;26316;55.976;37.140;2023-04-05T11:19:17;5.28;;;3.90;;
40609;SDS011;26316;55.976;37.140;2023-04-05T11:21:42;4.80;;;3.70;;
40609;SDS011;26316;55.976;37.140;2023-04-05T11:24:12;8.02;;;3.92;;
40609;SDS011;26316;55.976;37.140;2023-04-05T11:29:09;7.55;;;3.97;;
40609;SDS011;26316;55.976;37.140;2023-04-05T11:31:35;5.55;;;3.97;;
40609;SDS011;26316;55.976;37.140;2023-04-05T11:34:05;7.07;;;3.72;;
40609;SDS011;26316;55.976;37.140;2023-04-05T11:36:37;4.82;;;3.10;;
40609;SDS011;26316;55.976;37.140;2023-04-05T11:41:54;6.47;;;3.45;;
40609;SDS011;26316;55.976;37.140;2023-04-05T11:44:22;10.93;;;3.20;;
40609;SDS011;26316;55.976;37.140;2023-04-05T11:46:49;6.97;;;3.38;;
40609;SDS011;26316;55.976;37.140;2023-04-05T11:49:15;3.45;;;3.08;;
40609;SDS011;26316;55.976;37.140;2023-04-05T11:51:41;11.63;;;3.50;;
40609;SDS011;26316;55.976;37.140;2023-04-05T11:54:08;5.82;;;3.38;;
40609;SDS011;26316;55.976;37.140;2023-04-05T11:56:34;6.65;;;3.30;;
40609;SDS011;26316;55.976;37.140;2023-04-05T11:58:59;3.10;;;2.75;;
40609;SDS011;26316;55.976;37.140;2023-04-05T12:01:25;3.90;;;3.15;;
40609;SDS011;26316;55.976;37.140;2023-04-05T12:03:54;7.32;;;3.30;;
40609;SDS011;26316;55.976;37.140;2023-04-05T12:06:21;9.60;;;3.10;;
40609;SDS011;26316;55.976;37.140;2023-04-05T12:08:48;3.33;;;3.03;;
40609;SDS011;26316;55.976;37.140;2023-04-05T12:11:27;7.40;;;3.30;;
40609;SDS011;26316;55.976;37.140;2023-04-05T12:13:55;6.07;;;3.28;;
40609;SDS011;26316;55.976;37.140;2023-04-05T12:16:25;5.70;;;2.83;;
40609;SDS011;26316;55.976;37.140;2023-04-05T12:18:57;2.78;;;2.50;;
40609;SDS011;26316;55.976;37.140;2023-04-05T12:21:25;8.30;;;3.15;;
40609;SDS011;26316;55.976;37.140;2023-04-05T12:23:52;2.70;;;2.50;;
40609;SDS011;26316;55.976;37.140;2023-04-05T12:26:18;3.65;;;2.80;;
40609;SDS011;26316;55.976;37.140;2023-04-05T12:28:50;4.60;;;3.17;;
40609;SDS011;26316;55.976;37.140;2023-04-05T12:34:05;3.67;;;2.50;;
40609;SDS011;26316;55.976;37.140;2023-04-05T12:36:31;6.97;;;3.20;;
40609;SDS011;26316;55.976;37.140;2023-04-05T12:38:57;8.27;;;2.80;;
40609;SDS011;26316;55.976;37.140;2023-04-05T12:41:29;8.38;;;3.30;;
40609;SDS011;26316;55.976;37.140;2023-04-05T12:43:55;3.65;;;3.15;;
40609;SDS011;26316;55.976;37.140;2023-04-05T12:46:43;8.20;;;3.92;;
40609;SDS011;26316;55.976;37.140;2023-04-05T12:51:36;10.07;;;3.50;;
40609;SDS011;26316;55.976;37.140;2023-04-05T12:54:07;5.78;;;3.05;;
40609;SDS011;26316;55.976;37.140;2023-04-05T12:56:32;6.30;;;2.63;;
40609;SDS011;26316;55.976;37.140;2023-04-05T12:58:58;4.28;;;3.22;;
40609;SDS011;26316;55.976;37.140;2023-04-05T13:01:24;5.78;;;3.80;;
40609;SDS011;26316;55.976;37.140;2023-04-05T13:03:50;8.85;;;4.60;;
40609;SDS011;26316;55.976;37.140;2023-04-05T13:06:16;7.72;;;4.15;;
40609;SDS011;26316;55.976;37.140;2023-04-05T13:08:42;7.47;;;3.55;;
40609;SDS011;26316;55.976;37.140;2023-04-05T13:11:07;6.82;;;3.50;;
40609;SDS011;26316;55.976;37.140;2023-04-05T13:13:33;5.45;;;3.05;;
40609;SDS011;26316;55.976;37.140;2023-04-05T13:15:58;8.18;;;3.22;;
40609;SDS011;26316;55.976;37.140;2023-04-05T13:18:24;5.35;;;3.10;;
40609;SDS011;26316;55.976;37.140;2023-04-05T13:20:50;7.95;;;3.35;;
40609;SDS011;26316;55.976;37.140;2023-04-05T13:23:16;5.50;;;2.92;;
40609;SDS011;26316;55.976;37.140;2023-04-05T13:25:42;4.93;;;2.90;;
40609;SDS011;26316;55.976;37.140;2023-04-05T13:28:09;3.95;;;2.83;;
40609;SDS011;26316;55.976;37.140;2023-04-05T13:30:35;5.53;;;3.33;;
40609;SDS011;26316;55.976;37.140;2023-04-05T13:33:01;7.50;;;2.83;;
40609;SDS011;26316;55.976;37.140;2023-04-05T13:35:28;10.55;;;2.85;;
40609;SDS011;26316;55.976;37.140;2023-04-05T13:37:54;6.30;;;2.58;;
40609;SDS011;26316;55.976;37.140;2023-04-05T13:40:20;6.10;;;3.03;;
40609;SDS011;26316;55.976;37.140;2023-04-05T13:42:45;7.88;;;2.42;;
40609;SDS011;26316;55.976;37.140;2023-04-05T13:45:12;7.65;;;3.15;;
40609;SDS011;26316;55.976;37.140;2023-04-05T13:47:38;7.95;;;2.60;;
40609;SDS011;26316;55.976;37.140;2023-04-05T13:50:04;5.85;;;2.50;;
40609;SDS011;26316;55.976;37.140;2023-04-05T13:52:30;3.28;;;2.78;;
40609;SDS011;26316;55.976;37.140;2023-04-05T13:54:56;4.20;;;2.60;;
40609;SDS011;26316;55.976;37.140;2023-04-05T13:57:21;4.35;;;2.83;;
40609;SDS011;26316;55.976;37.140;2023-04-05T13:59:47;3.00;;;2.38;;
40609;SDS011;26316;55.976;37.140;2023-04-05T14:02:12;8.38;;;2.97;;
40609;SDS011;26316;55.976;37.140;2023-04-05T14:04:42;4.10;;;2.78;;
40609;SDS011;26316;55.976;37.140;2023-04-05T14:07:08;6.45;;;2.60;;
40609;SDS011;26316;55.976;37.140;2023-04-05T14:09:33;4.53;;;2.60;;
40609;SDS011;26316;55.976;37.140;2023-04-05T14:11:59;6.47;;;2.72;;
40609;SDS011;26316;55.976;37.140;2023-04-05T14:14:28;4.50;;;2.37;;
40609;SDS011;26316;55.976;37.140;2023-04-05T14:16:54;6.60;;;2.70;;
40609;SDS011;26316;55.976;37.140;2023-04-05T14:19:20;6.10;;;2.30;;
40609;SDS011;26316;55.976;37.140;2023-04-05T14:21:46;5.25;;;2.42;;
40609;SDS011;26316;55.976;37.140;2023-04-05T14:24:12;4.38;;;2.30;;
40609;SDS011;26316;55.976;37.140;2023-04-05T14:26:38;6.15;;;2.42;;
40609;SDS011;26316;55.976;37.140;2023-04-05T14:29:04;17.17;;;2.60;;
40609;SDS011;26316;55.976;37.140;2023-04-05T14:31:30;6.65;;;2.30;;
40609;SDS011;26316;55.976;37.140;2023-04-05T14:33:55;5.20;;;2.63;;
40609;SDS011;26316;55.976;37.140;2023-04-05T14:36:21;5.68;;;2.58;;
40609;SDS011;26316;55.976;37.140;2023-04-05T14:38:47;3.90;;;2.55;;
40609;SDS011;26316;55.976;37.140;2023-04-05T14:41:12;6.22;;;2.10;;
40609;SDS011;26316;55.976;37.140;2023-04-05T14:43:38;8.25;;;2.70;;
40609;SDS011;26316;55.976;37.140;2023-04-05T14:46:04;6.85;;;2.63;;
40609;SDS011;26316;55.976;37.140;2023-04-05T14:48:30;8.57;;;2.40;;
40609;SDS011;26316;55.976;37.140;2023-04-05T14:50:58;3.30;;;2.40;;
40609;SDS011;26316;55.976;37.140;2023-04-05T14:53:24;6.53;;;2.40;;
40609;SDS011;26316;55.976;37.140;2023-04-05T14:55:49;6.15;;;2.97;;
40609;SDS011;26316;55.976;37.140;2023-04-05T14:58:15;5.95;;;2.67;;
40609;SDS011;26316;55.976;37.140;2023-04-05T15:00:44;8.60;;;2.67;;
40609;SDS011;26316;55.976;37.140;2023-04-05T15:03:12;7.82;;;2.28;;
40609;SDS011;26316;55.976;37.140;2023-04-05T15:05:38;11.48;;;2.83;;
40609;SDS011;26316;55.976;37.140;2023-04-05T15:08:03;4.40;;;2.92;;
40609;SDS011;26316;55.976;37.140;2023-04-05T15:10:29;2.28;;;1.92;;
40609;SDS011;26316;55.976;37.140;2023-04-05T15:12:55;2.95;;;1.90;;
40609;SDS011;26316;55.976;37.140;2023-04-05T15:15:21;4.82;;;2.35;;
40609;SDS011;26316;55.976;37.140;2023-04-05T15:17:46;4.53;;;2.53;;
40609;SDS011;26316;55.976;37.140;2023-04-05T15:20:12;3.83;;;2.33;;
40609;SDS011;26316;55.976;37.140;2023-04-05T15:22:38;4.95;;;2.50;;